Flight Track Log - Related Links

Times and Time Zones

All times are in EDT time to prevent confusion due to time zone crossing. See the N108CG flight status page for this flight to view local times or setup timezone preferences in your user account.

Time Position Orientation Groundspeed Altitude Reporting Facility
EDT Latitude Longitude Course Direction KTS MPH feet Rate Location/Type
Wed 01:35:09 PM 32.7625 -96.9139 154° Southeast 274 315 10,400  Level Fort Worth Center
Wed 01:36:11 PM 32.8047 -96.8247 61° Northeast 334 384 14,200 3,387 Climbing Fort Worth Center
Wed 01:37:13 PM 32.9036 -96.8228 North 348 400 17,400 2,903 Climbing Fort Worth Center
Wed 01:38:15 PM 33.0014 -96.7992 11° North 377 434 20,200 2,400 Climbing Fort Worth Center
Wed 01:39:18 PM 33.0944 -96.7289 32° Northeast 394 453 22,400 1,920 Climbing Fort Worth Center
Wed 01:40:20 PM 33.1819 -96.6653 31° Northeast 404 465 24,200 2,081 Climbing Fort Worth Center
Wed 01:41:22 PM 33.3033 -96.5797 30° Northeast 424 488 26,700 1,935 Climbing Fort Worth Center
Wed 01:42:24 PM 33.4053 -96.5097 30° Northeast 424 488 28,200 1,452 Climbing Fort Worth Center
Wed 01:43:26 PM 33.5128 -96.4333 31° Northeast 446 513 29,700 1,355 Climbing Fort Worth Center
Wed 01:44:28 PM 33.6217 -96.3564 30° Northeast 452 520 31,000 629 Climbing Fort Worth Center
Wed 01:45:30 PM 33.7381 -96.2772 29° Northeast 477 549 31,000  Level Fort Worth Center
Wed 01:46:32 PM 33.8828 -96.1739 31° Northeast 500 575 31,000 48 Level Fort Worth Center
Wed 01:47:34 PM 34.0067 -96.0856 31° Northeast 512 589 31,100 1,306 Climbing Fort Worth Center
Wed 01:48:36 PM 34.1314 -95.9933 31° Northeast 505 581 33,700 2,112 Climbing Fort Worth Center
Wed 01:49:39 PM 34.2422 -95.9147 30° Northeast 470 541 35,500 1,776 Climbing Fort Worth Center
Wed 01:50:41 PM 34.3525 -95.8375 30° Northeast 463 533 37,400 1,935 Climbing Fort Worth Center
Wed 01:51:43 PM 34.4581 -95.7603 31° Northeast 450 518 39,500 1,742 Climbing Fort Worth Center
Wed 01:52:45 PM 34.5569 -95.6889 31° Northeast 420 483 41,000 726 Climbing Fort Worth Center
Wed 01:53:47 PM 34.6806 -95.6000 31° Northeast 429 494 41,000  Level Fort Worth Center
Wed 01:54:49 PM 34.7836 -95.5283 30° Northeast 453 521 41,000  Level Fort Worth Center
Wed 01:55:51 PM 34.8989 -95.4428 31° Northeast 478 550 41,000  Level Fort Worth Center
Wed 01:56:53 PM 35.0178 -95.3567 31° Northeast 493 567 41,000  Level Fort Worth Center
Wed 01:57:55 PM 35.1631 -95.2494 31° Northeast 505 581 41,000  Level Fort Worth Center
Wed 01:58:58 PM 35.2856 -95.1589 31° Northeast 513 590 41,000  Level Fort Worth Center
Wed 02:00:00 PM 35.4075 -95.0689 31° Northeast 513 590 41,000  Level Fort Worth Center
Wed 02:01:02 PM 35.5303 -94.9789 31° Northeast 513 590 41,000  Level Fort Worth Center
Wed 02:01:51 PM 35.6278 -94.9047 32° Northeast 512 589 41,000  Level Memphis Center
Wed 02:02:53 PM 35.7492 -94.8133 31° Northeast 513 590 41,000  Level Memphis Center
Wed 02:03:55 PM 35.8717 -94.7217 31° Northeast 513 590 41,000  Level Memphis Center
Wed 02:04:57 PM 36.0172 -94.6114 31° Northeast 513 590 41,000  Level Memphis Center
Wed 02:05:59 PM 36.1394 -94.5197 31° Northeast 513 590 41,000  Level Memphis Center
Wed 02:07:01 PM 36.2600 -94.4281 32° Northeast 513 590 41,000  Level Memphis Center
Wed 02:08:03 PM 36.3808 -94.3361 31° Northeast 513 590 41,000  Level Memphis Center
Wed 02:09:05 PM 36.4994 -94.2442 32° Northeast 508 585 41,000  Level Memphis Center
Wed 02:10:07 PM 36.6433 -94.1356 31° Northeast 507 583 41,000  Level Memphis Center
Wed 02:11:00 PM 36.7383 -94.0628 32° Northeast 505 581 41,000  Level Kansas City Center
Wed 02:12:04 PM 36.8575 -93.9711 32° Northeast 505 581 41,000  Level Kansas City Center
Wed 02:13:04 PM 36.9731 -93.8786 33° Northeast 499 574 41,000  Level Kansas City Center
Wed 02:14:08 PM 37.0908 -93.7867 32° Northeast 498 573 41,000  Level Kansas City Center
Wed 02:15:08 PM 37.2225 -93.6839 32° Northeast 498 573 41,000  Level Kansas City Center
Wed 02:16:12 PM 37.3417 -93.5931 31° Northeast 498 573 41,000  Level Kansas City Center
Wed 02:17:12 PM 37.4592 -93.5011 32° Northeast 498 573 41,000  Level Kansas City Center
Wed 02:18:16 PM 37.5761 -93.4086 32° Northeast 498 573 41,000  Level Kansas City Center
Wed 02:19:16 PM 37.7161 -93.2972 32° Northeast 496 571 41,000  Level Kansas City Center
Wed 02:20:20 PM 37.8331 -93.2039 32° Northeast 495 570 41,000  Level Kansas City Center
Wed 02:21:20 PM 37.9511 -93.1097 32° Northeast 496 571 41,000  Level Kansas City Center
Wed 02:22:24 PM 38.0708 -93.0144 32° Northeast 499 574 41,000  Level Kansas City Center
Wed 02:23:25 PM 38.1875 -92.9194 33° Northeast 498 573 41,000  Level Kansas City Center
Wed 02:24:26 PM 38.3047 -92.8258 32° Northeast 496 571 41,000  Level Kansas City Center
Wed 02:25:30 PM 38.4192 -92.7311 33° Northeast 490 564 41,000  Level Kansas City Center
Wed 02:26:31 PM 38.5339 -92.6378 32° Northeast 487 560 41,000  Level Kansas City Center
Wed 02:27:35 PM 38.6697 -92.5247 33° Northeast 486 559 41,000  Level Kansas City Center
Wed 02:28:36 PM 38.7825 -92.4308 33° Northeast 485 558 41,000  Level Kansas City Center
Wed 02:29:38 PM 38.8964 -92.3392 32° Northeast 484 557 41,000  Level Kansas City Center
Wed 02:30:39 PM 39.0097 -92.2439 33° Northeast 484 557 41,000  Level Kansas City Center
Wed 02:31:43 PM 39.1242 -92.1536 31° Northeast 484 557 41,000  Level Kansas City Center
Wed 02:32:43 PM 39.2394 -92.0658 31° Northeast 482 555 41,000  Level Kansas City Center
Wed 02:33:47 PM 39.3678 -91.9619 32° Northeast 482 555 41,000  Level Kansas City Center
Wed 02:34:47 PM 39.4797 -91.8736 31° Northeast 482 555 41,000  Level Kansas City Center
Wed 02:35:51 PM 39.5897 -91.7831 32° Northeast 478 550 41,000  Level Kansas City Center
Wed 02:36:52 PM 39.7011 -91.6922 32° Northeast 478 550 41,000  Level Kansas City Center
Wed 02:37:56 PM 39.8367 -91.5872 31° Northeast 478 550 41,000  Level Kansas City Center
Wed 02:38:57 PM 39.9494 -91.4989 31° Northeast 478 550 41,000  Level Kansas City Center
Wed 02:39:57 PM 40.0594 -91.4078 32° Northeast 478 550 41,000  Level Kansas City Center
Wed 02:41:01 PM 40.1672 -91.3158 33° Northeast 474 545 41,000  Level Kansas City Center
Wed 02:42:02 PM 40.2764 -91.2211 33° Northeast 474 545 41,000  Level Kansas City Center
Wed 02:43:05 PM 40.4019 -91.1097 34° Northeast 474 545 41,000  Level Kansas City Center
Wed 02:44:06 PM 40.5131 -91.0103 34° Northeast 475 547 41,000  Level Kansas City Center
Wed 02:45:09 PM 40.6239 -90.9103 34° Northeast 478 550 41,000  Level Kansas City Center
Wed 02:45:56 PM 40.7128 -90.8325 34° Northeast 480 552 41,000  Level Chicago Center
Wed 02:46:58 PM 40.8219 -90.7331 35° Northeast 479 551 41,000  Level Chicago Center
Wed 02:48:00 PM 40.9556 -90.6122 34° Northeast 480 552 41,000 -240 Level Chicago Center
Wed 02:49:03 PM 41.0650 -90.5111 35° Northeast 479 551 40,500 -960 Descending Chicago Center
Wed 02:50:05 PM 41.1706 -90.4150 34° Northeast 463 533 39,000 -1,645 Descending Chicago Center
Wed 02:51:07 PM 41.2742 -90.3194 35° Northeast 453 521 37,100 -1,984 Descending Chicago Center
Wed 02:52:09 PM 41.3767 -90.2253 35° Northeast 451 519 34,900 -2,565 Descending Chicago Center
Wed 02:53:11 PM 41.4728 -90.1364 35° Northeast 428 493 31,800 -2,952 Descending Chicago Center
Wed 02:54:13 PM 41.5636 -90.0514 35° Northeast 401 461 28,800 -3,242 Descending Chicago Center
Wed 02:55:15 PM 41.6694 -89.9522 35° Northeast 389 448 25,100 -3,242 Descending Chicago Center
Wed 02:56:17 PM 41.7514 -89.8761 35° Northeast 369 425 22,100 -2,880 Descending Chicago Center
Wed 02:57:20 PM 41.8311 -89.7994 36° Northeast 349 402 19,100 -2,832 Descending Chicago Center
Wed 02:58:22 PM 41.9150 -89.7206 35° Northeast 361 415 16,200 -2,468 Descending Chicago Center
Wed 02:59:24 PM 41.9939 -89.6453 35° Northeast 347 399 14,000 -2,419 Descending Chicago Center
Wed 03:00:26 PM 42.0825 -89.5647 34° Northeast 336 387 11,200 -2,565 Descending Chicago Center
Wed 03:01:28 PM 42.1536 -89.4908 38° Northeast 326 375 8,700 -2,468 Descending Chicago Center
Wed 03:02:30 PM 42.2217 -89.4278 34° Northeast 307 353 6,100 -2,468 Descending Chicago Center
Wed 03:03:32 PM 42.2842 -89.3672 36° Northeast 286 329 3,600 -1,000 Descending Chicago Center
Wed 03:05:36 PM 42.3969 -89.2606 35° Northeast 262 302 3,000 -194 Descending Chicago Center
Wed 03:06:38 PM 42.4611 -89.2000 35° Northeast 231 266 3,000 48 Level Chicago Center
Wed 03:07:40 PM 42.5114 -89.1556 33° Northeast 223 257 3,100 -194 Climbing Chicago Center
Wed 03:08:42 PM 42.5553 -89.1197 31° Northeast 203 234 2,600 -576 Descending Chicago Center
Wed 03:09:45 PM 42.5867 -89.0756 46° Northeast 175 201 1,900 -667 Descending Chicago Center
Wed 03:11:00 PM 42.6167 -89.0333 36° Northeast  Level FlightAware Approximate
Wed 03:18:00 PM 42.6203 -89.0416 36° Northeast  Level Estimated
Wed 03:19:00 PM 42.6167 -89.0333 36° Northeast  Level FlightAware Approximate

Login

Don't have an account? Register now (free) for customized features, flight alerts, and more!